sensor_id;sensor_type;location;lat;lon;timestamp;temperature;humidity
3298;DHT22;1661;53.572;10.174;2022-07-03T00:00:35;19.30;67.30
3298;DHT22;1661;53.572;10.174;2022-07-03T00:03:05;19.30;67.10
3298;DHT22;1661;53.572;10.174;2022-07-03T00:05:32;19.30;67.00
3298;DHT22;1661;53.572;10.174;2022-07-03T00:07:59;19.30;66.80
3298;DHT22;1661;53.572;10.174;2022-07-03T00:10:25;19.30;66.60
3298;DHT22;1661;53.572;10.174;2022-07-03T00:12:52;19.30;66.40
3298;DHT22;1661;53.572;10.174;2022-07-03T00:15:19;19.40;66.30
3298;DHT22;1661;53.572;10.174;2022-07-03T00:17:46;19.40;66.40
3298;DHT22;1661;53.572;10.174;2022-07-03T00:20:14;19.40;66.30
3298;DHT22;1661;53.572;10.174;2022-07-03T00:22:43;19.40;66.30
3298;DHT22;1661;53.572;10.174;2022-07-03T00:25:11;19.30;66.30
3298;DHT22;1661;53.572;10.174;2022-07-03T00:27:39;19.40;66.10
3298;DHT22;1661;53.572;10.174;2022-07-03T00:30:07;19.40;65.90
3298;DHT22;1661;53.572;10.174;2022-07-03T00:32:38;19.40;65.90
3298;DHT22;1661;53.572;10.174;2022-07-03T00:35:06;19.40;65.70
3298;DHT22;1661;53.572;10.174;2022-07-03T00:37:35;19.40;65.70
3298;DHT22;1661;53.572;10.174;2022-07-03T00:40:02;19.40;65.70
3298;DHT22;1661;53.572;10.174;2022-07-03T00:42:30;19.40;65.60
3298;DHT22;1661;53.572;10.174;2022-07-03T00:45:00;19.40;65.70
3298;DHT22;1661;53.572;10.174;2022-07-03T00:47:30;19.50;65.70
3298;DHT22;1661;53.572;10.174;2022-07-03T00:50:05;19.50;65.40
3298;DHT22;1661;53.572;10.174;2022-07-03T00:52:34;19.50;65.60
3298;DHT22;1661;53.572;10.174;2022-07-03T00:55:07;19.50;66.10
3298;DHT22;1661;53.572;10.174;2022-07-03T00:57:35;19.50;66.20
3298;DHT22;1661;53.572;10.174;2022-07-03T01:00:11;19.50;66.40
3298;DHT22;1661;53.572;10.174;2022-07-03T01:02:46;19.50;66.20
3298;DHT22;1661;53.572;10.174;2022-07-03T01:05:22;19.50;66.30
3298;DHT22;1661;53.572;10.174;2022-07-03T01:08:02;19.40;66.00
3298;DHT22;1661;53.572;10.174;2022-07-03T01:10:42;19.40;65.90
3298;DHT22;1661;53.572;10.174;2022-07-03T01:13:14;19.40;65.40
3298;DHT22;1661;53.572;10.174;2022-07-03T01:15:52;19.40;65.70
3298;DHT22;1661;53.572;10.174;2022-07-03T01:18:30;19.40;65.40
3298;DHT22;1661;53.572;10.174;2022-07-03T01:21:06;19.40;65.60
3298;DHT22;1661;53.572;10.174;2022-07-03T01:23:46;19.40;65.30
3298;DHT22;1661;53.572;10.174;2022-07-03T01:26:24;19.40;65.40
3298;DHT22;1661;53.572;10.174;2022-07-03T01:28:57;19.40;65.50
3298;DHT22;1661;53.572;10.174;2022-07-03T01:31:25;19.40;65.50
3298;DHT22;1661;53.572;10.174;2022-07-03T01:33:53;19.40;65.60
3298;DHT22;1661;53.572;10.174;2022-07-03T01:36:22;19.30;65.70
3298;DHT22;1661;53.572;10.174;2022-07-03T01:38:50;19.30;65.50
3298;DHT22;1661;53.572;10.174;2022-07-03T01:41:17;19.30;65.40
3298;DHT22;1661;53.572;10.174;2022-07-03T01:43:47;19.30;65.30
3298;DHT22;1661;53.572;10.174;2022-07-03T01:46:17;19.30;65.60
3298;DHT22;1661;53.572;10.174;2022-07-03T01:48:44;19.30;65.60
3298;DHT22;1661;53.572;10.174;2022-07-03T01:51:14;19.30;65.60
3298;DHT22;1661;53.572;10.174;2022-07-03T01:53:44;19.30;65.70
3298;DHT22;1661;53.572;10.174;2022-07-03T01:56:12;19.30;65.70
3298;DHT22;1661;53.572;10.174;2022-07-03T01:58:39;19.30;65.60
3298;DHT22;1661;53.572;10.174;2022-07-03T02:01:13;19.30;65.70
3298;DHT22;1661;53.572;10.174;2022-07-03T02:03:44;19.30;65.20
3298;DHT22;1661;53.572;10.174;2022-07-03T02:06:20;19.20;65.60
3298;DHT22;1661;53.572;10.174;2022-07-03T02:08:57;19.20;65.60
3298;DHT22;1661;53.572;10.174;2022-07-03T02:11:28;19.20;65.70
3298;DHT22;1661;53.572;10.174;2022-07-03T02:14:10;19.20;65.50
3298;DHT22;1661;53.572;10.174;2022-07-03T02:16:51;19.20;65.20
3298;DHT22;1661;53.572;10.174;2022-07-03T02:19:25;19.20;65.50
3298;DHT22;1661;53.572;10.174;2022-07-03T02:21:56;19.20;65.50
3298;DHT22;1661;53.572;10.174;2022-07-03T02:24:24;19.20;65.60
3298;DHT22;1661;53.572;10.174;2022-07-03T02:26:58;19.20;65.70
3298;DHT22;1661;53.572;10.174;2022-07-03T02:29:31;19.20;65.80
3298;DHT22;1661;53.572;10.174;2022-07-03T02:32:03;19.20;66.00
3298;DHT22;1661;53.572;10.174;2022-07-03T02:34:33;19.20;66.30
3298;DHT22;1661;53.572;10.174;2022-07-03T02:37:10;19.20;66.00
3298;DHT22;1661;53.572;10.174;2022-07-03T02:39:43;19.20;66.10
3298;DHT22;1661;53.572;10.174;2022-07-03T02:42:19;19.20;66.00
3298;DHT22;1661;53.572;10.174;2022-07-03T02:44:51;19.10;66.20
3298;DHT22;1661;53.572;10.174;2022-07-03T02:47:25;19.10;66.30
3298;DHT22;1661;53.572;10.174;2022-07-03T02:49:59;19.10;66.40
3298;DHT22;1661;53.572;10.174;2022-07-03T02:52:33;19.10;66.00
3298;DHT22;1661;53.572;10.174;2022-07-03T02:55:08;19.10;66.40
3298;DHT22;1661;53.572;10.174;2022-07-03T02:57:41;19.20;66.30
3298;DHT22;1661;53.572;10.174;2022-07-03T03:00:10;19.20;66.10
3298;DHT22;1661;53.572;10.174;2022-07-03T03:02:54;19.10;66.30
3298;DHT22;1661;53.572;10.174;2022-07-03T03:05:27;19.10;66.20
3298;DHT22;1661;53.572;10.174;2022-07-03T03:08:11;19.10;66.40
3298;DHT22;1661;53.572;10.174;2022-07-03T03:10:39;19.10;66.30
3298;DHT22;1661;53.572;10.174;2022-07-03T03:13:10;19.10;66.40
3298;DHT22;1661;53.572;10.174;2022-07-03T03:15:39;19.10;66.00
3298;DHT22;1661;53.572;10.174;2022-07-03T03:18:11;19.10;66.00
3298;DHT22;1661;53.572;10.174;2022-07-03T03:20:39;19.10;66.30
3298;DHT22;1661;53.572;10.174;2022-07-03T03:23:19;19.10;66.50
3298;DHT22;1661;53.572;10.174;2022-07-03T03:25:51;19.00;66.30
3298;DHT22;1661;53.572;10.174;2022-07-03T03:28:20;19.00;66.60
3298;DHT22;1661;53.572;10.174;2022-07-03T03:30:48;19.00;66.70
3298;DHT22;1661;53.572;10.174;2022-07-03T03:33:17;19.00;66.90
3298;DHT22;1661;53.572;10.174;2022-07-03T03:35:46;18.90;66.70
3298;DHT22;1661;53.572;10.174;2022-07-03T03:38:16;18.90;67.20
3298;DHT22;1661;53.572;10.174;2022-07-03T03:40:44;18.90;67.20
3298;DHT22;1661;53.572;10.174;2022-07-03T03:43:13;18.80;67.10
3298;DHT22;1661;53.572;10.174;2022-07-03T03:45:40;18.80;67.00
3298;DHT22;1661;53.572;10.174;2022-07-03T03:48:06;18.80;67.40
3298;DHT22;1661;53.572;10.174;2022-07-03T03:50:34;18.80;67.30
3298;DHT22;1661;53.572;10.174;2022-07-03T03:53:01;18.80;67.30
3298;DHT22;1661;53.572;10.174;2022-07-03T03:55:28;18.80;67.30
3298;DHT22;1661;53.572;10.174;2022-07-03T03:57:55;18.80;67.10
3298;DHT22;1661;53.572;10.174;2022-07-03T04:00:21;18.80;66.90
3298;DHT22;1661;53.572;10.174;2022-07-03T04:02:48;18.80;67.20
3298;DHT22;1661;53.572;10.174;2022-07-03T04:05:15;18.80;67.00
3298;DHT22;1661;53.572;10.174;2022-07-03T04:07:52;18.80;66.80
3298;DHT22;1661;53.572;10.174;2022-07-03T04:10:22;18.80;67.40
3298;DHT22;1661;53.572;10.174;2022-07-03T04:12:49;18.80;67.30
3298;DHT22;1661;53.572;10.174;2022-07-03T04:15:19;18.70;67.30
3298;DHT22;1661;53.572;10.174;2022-07-03T04:17:45;18.70;67.30
3298;DHT22;1661;53.572;10.174;2022-07-03T04:20:12;18.70;67.20
3298;DHT22;1661;53.572;10.174;2022-07-03T04:22:39;18.70;67.40
3298;DHT22;1661;53.572;10.174;2022-07-03T04:25:08;18.70;67.80
3298;DHT22;1661;53.572;10.174;2022-07-03T04:27:35;18.60;67.50
3298;DHT22;1661;53.572;10.174;2022-07-03T04:30:02;18.60;67.70
3298;DHT22;1661;53.572;10.174;2022-07-03T04:32:28;18.60;68.30
3298;DHT22;1661;53.572;10.174;2022-07-03T04:34:55;18.60;68.10
3298;DHT22;1661;53.572;10.174;2022-07-03T04:37:22;18.60;67.70
3298;DHT22;1661;53.572;10.174;2022-07-03T04:39:49;18.60;67.80
3298;DHT22;1661;53.572;10.174;2022-07-03T04:42:19;18.60;67.40
3298;DHT22;1661;53.572;10.174;2022-07-03T04:44:45;18.50;68.10
3298;DHT22;1661;53.572;10.174;2022-07-03T04:47:12;18.50;68.80
3298;DHT22;1661;53.572;10.174;2022-07-03T04:49:40;18.50;68.50
3298;DHT22;1661;53.572;10.174;2022-07-03T04:52:07;18.50;68.80
3298;DHT22;1661;53.572;10.174;2022-07-03T04:54:34;18.50;69.00
3298;DHT22;1661;53.572;10.174;2022-07-03T04:57:07;18.50;69.00
3298;DHT22;1661;53.572;10.174;2022-07-03T04:59:35;18.50;69.30
3298;DHT22;1661;53.572;10.174;2022-07-03T05:02:03;18.50;69.50
3298;DHT22;1661;53.572;10.174;2022-07-03T05:04:30;18.50;69.40
3298;DHT22;1661;53.572;10.174;2022-07-03T05:07:00;18.50;69.40
3298;DHT22;1661;53.572;10.174;2022-07-03T05:09:27;18.50;69.60
3298;DHT22;1661;53.572;10.174;2022-07-03T05:11:53;18.50;69.40
3298;DHT22;1661;53.572;10.174;2022-07-03T05:14:20;18.60;69.20
3298;DHT22;1661;53.572;10.174;2022-07-03T05:16:51;18.60;68.90
3298;DHT22;1661;53.572;10.174;2022-07-03T05:19:21;18.70;69.10
3298;DHT22;1661;53.572;10.174;2022-07-03T05:21:47;18.70;68.90
3298;DHT22;1661;53.572;10.174;2022-07-03T05:24:14;18.80;68.70
3298;DHT22;1661;53.572;10.174;2022-07-03T05:26:41;18.80;68.60
3298;DHT22;1661;53.572;10.174;2022-07-03T05:29:08;19.00;68.40
3298;DHT22;1661;53.572;10.174;2022-07-03T05:31:35;19.00;68.10
3298;DHT22;1661;53.572;10.174;2022-07-03T05:34:03;19.10;68.70
3298;DHT22;1661;53.572;10.174;2022-07-03T05:36:29;19.20;68.50
3298;DHT22;1661;53.572;10.174;2022-07-03T05:38:56;19.30;68.10
3298;DHT22;1661;53.572;10.174;2022-07-03T05:41:40;19.40;67.80
3298;DHT22;1661;53.572;10.174;2022-07-03T05:44:07;19.50;67.50
3298;DHT22;1661;53.572;10.174;2022-07-03T05:46:34;19.60;67.30
3298;DHT22;1661;53.572;10.174;2022-07-03T05:49:00;19.70;67.30
3298;DHT22;1661;53.572;10.174;2022-07-03T05:51:29;19.70;66.50
3298;DHT22;1661;53.572;10.174;2022-07-03T05:53:55;19.80;66.20
3298;DHT22;1661;53.572;10.174;2022-07-03T05:56:24;19.80;66.20
3298;DHT22;1661;53.572;10.174;2022-07-03T05:58:51;19.90;65.80
3298;DHT22;1661;53.572;10.174;2022-07-03T06:01:18;20.00;65.70
3298;DHT22;1661;53.572;10.174;2022-07-03T06:03:44;20.20;65.70
3298;DHT22;1661;53.572;10.174;2022-07-03T06:06:14;20.30;66.10
3298;DHT22;1661;53.572;10.174;2022-07-03T06:08:42;20.50;65.40
3298;DHT22;1661;53.572;10.174;2022-07-03T06:11:09;20.60;64.10
3298;DHT22;1661;53.572;10.174;2022-07-03T06:13:36;20.70;63.90
3298;DHT22;1661;53.572;10.174;2022-07-03T06:16:03;20.90;63.30
3298;DHT22;1661;53.572;10.174;2022-07-03T06:18:29;21.00;62.80
3298;DHT22;1661;53.572;10.174;2022-07-03T06:20:56;21.10;62.80
3298;DHT22;1661;53.572;10.174;2022-07-03T06:23:29;21.20;62.70
3298;DHT22;1661;53.572;10.174;2022-07-03T06:25:57;21.30;62.30
3298;DHT22;1661;53.572;10.174;2022-07-03T06:28:24;21.50;61.90
3298;DHT22;1661;53.572;10.174;2022-07-03T06:30:51;21.60;61.70
3298;DHT22;1661;53.572;10.174;2022-07-03T06:33:17;21.80;61.60
3298;DHT22;1661;53.572;10.174;2022-07-03T06:35:44;21.90;61.10
3298;DHT22;1661;53.572;10.174;2022-07-03T06:38:11;22.10;60.70
3298;DHT22;1661;53.572;10.174;2022-07-03T06:40:37;22.20;61.00
3298;DHT22;1661;53.572;10.174;2022-07-03T06:43:05;22.40;60.60
3298;DHT22;1661;53.572;10.174;2022-07-03T06:45:32;22.60;59.50
3298;DHT22;1661;53.572;10.174;2022-07-03T06:47:59;22.70;59.80
3298;DHT22;1661;53.572;10.174;2022-07-03T06:50:29;22.90;59.90
3298;DHT22;1661;53.572;10.174;2022-07-03T06:52:55;23.10;58.70
3298;DHT22;1661;53.572;10.174;2022-07-03T06:55:22;23.30;58.30
3298;DHT22;1661;53.572;10.174;2022-07-03T06:57:49;23.50;58.70
3298;DHT22;1661;53.572;10.174;2022-07-03T07:00:17;23.60;57.90
3298;DHT22;1661;53.572;10.174;2022-07-03T07:02:44;23.80;57.90
3298;DHT22;1661;53.572;10.174;2022-07-03T07:05:11;24.00;57.70
3298;DHT22;1661;53.572;10.174;2022-07-03T07:07:38;24.20;57.20
3298;DHT22;1661;53.572;10.174;2022-07-03T07:10:05;24.40;56.70
3298;DHT22;1661;53.572;10.174;2022-07-03T07:12:32;24.50;55.50
3298;DHT22;1661;53.572;10.174;2022-07-03T07:14:59;24.70;55.60
3298;DHT22;1661;53.572;10.174;2022-07-03T07:17:27;24.80;55.10
3298;DHT22;1661;53.572;10.174;2022-07-03T07:19:55;25.00;55.10
3298;DHT22;1661;53.572;10.174;2022-07-03T07:22:22;25.10;54.90
3298;DHT22;1661;53.572;10.174;2022-07-03T07:24:50;25.20;54.60
3298;DHT22;1661;53.572;10.174;2022-07-03T07:27:17;25.40;53.90
3298;DHT22;1661;53.572;10.174;2022-07-03T07:29:44;25.50;54.60
3298;DHT22;1661;53.572;10.174;2022-07-03T07:32:11;25.60;54.50
3298;DHT22;1661;53.572;10.174;2022-07-03T07:34:42;25.70;53.30
3298;DHT22;1661;53.572;10.174;2022-07-03T07:37:08;25.80;53.70
3298;DHT22;1661;53.572;10.174;2022-07-03T07:39:35;25.80;53.80
3298;DHT22;1661;53.572;10.174;2022-07-03T07:42:02;25.80;54.00
3298;DHT22;1661;53.572;10.174;2022-07-03T07:44:29;25.90;54.80
3298;DHT22;1661;53.572;10.174;2022-07-03T07:46:56;26.00;53.90
3298;DHT22;1661;53.572;10.174;2022-07-03T07:49:22;26.10;54.00
3298;DHT22;1661;53.572;10.174;2022-07-03T07:51:50;26.20;53.90
3298;DHT22;1661;53.572;10.174;2022-07-03T07:54:17;26.30;53.00
3298;DHT22;1661;53.572;10.174;2022-07-03T07:56:44;26.50;53.70
3298;DHT22;1661;53.572;10.174;2022-07-03T07:59:11;26.60;52.60
3298;DHT22;1661;53.572;10.174;2022-07-03T08:01:37;26.80;51.70
3298;DHT22;1661;53.572;10.174;2022-07-03T08:04:22;26.90;51.70
3298;DHT22;1661;53.572;10.174;2022-07-03T08:07:07;26.90;51.00
3298;DHT22;1661;53.572;10.174;2022-07-03T08:09:34;26.90;51.60
3298;DHT22;1661;53.572;10.174;2022-07-03T08:12:01;26.80;50.70
3298;DHT22;1661;53.572;10.174;2022-07-03T08:14:28;26.40;51.80
3298;DHT22;1661;53.572;10.174;2022-07-03T08:16:55;26.40;53.30
3298;DHT22;1661;53.572;10.174;2022-07-03T08:19:21;26.50;54.00
3298;DHT22;1661;53.572;10.174;2022-07-03T08:21:48;26.60;52.80
3298;DHT22;1661;53.572;10.174;2022-07-03T08:24:16;26.80;51.70
3298;DHT22;1661;53.572;10.174;2022-07-03T08:26:45;26.80;51.20
3298;DHT22;1661;53.572;10.174;2022-07-03T08:29:12;26.80;52.00
3298;DHT22;1661;53.572;10.174;2022-07-03T08:31:38;27.00;51.40
3298;DHT22;1661;53.572;10.174;2022-07-03T08:34:05;27.20;51.60
3298;DHT22;1661;53.572;10.174;2022-07-03T08:36:33;27.40;51.30
3298;DHT22;1661;53.572;10.174;2022-07-03T08:39:00;27.70;50.90
3298;DHT22;1661;53.572;10.174;2022-07-03T08:41:28;27.90;50.60
3298;DHT22;1661;53.572;10.174;2022-07-03T08:43:59;28.00;50.30
3298;DHT22;1661;53.572;10.174;2022-07-03T08:46:30;28.00;48.70
3298;DHT22;1661;53.572;10.174;2022-07-03T08:48:59;27.90;49.70
3298;DHT22;1661;53.572;10.174;2022-07-03T08:51:26;27.90;51.10
3298;DHT22;1661;53.572;10.174;2022-07-03T08:53:54;28.20;50.60
3298;DHT22;1661;53.572;10.174;2022-07-03T08:56:21;28.30;45.60
3298;DHT22;1661;53.572;10.174;2022-07-03T08:58:49;28.40;46.40
3298;DHT22;1661;53.572;10.174;2022-07-03T09:01:18;28.60;45.80
3298;DHT22;1661;53.572;10.174;2022-07-03T09:03:45;28.90;48.70
3298;DHT22;1661;53.572;10.174;2022-07-03T09:06:17;29.00;45.40
3298;DHT22;1661;53.572;10.174;2022-07-03T09:08:45;29.20;45.20
3298;DHT22;1661;53.572;10.174;2022-07-03T09:11:15;29.30;44.30
3298;DHT22;1661;53.572;10.174;2022-07-03T09:13:44;29.40;45.50
3298;DHT22;1661;53.572;10.174;2022-07-03T09:16:16;29.20;44.40
3298;DHT22;1661;53.572;10.174;2022-07-03T09:18:44;29.10;45.90
3298;DHT22;1661;53.572;10.174;2022-07-03T09:21:11;29.30;45.50
3298;DHT22;1661;53.572;10.174;2022-07-03T09:23:39;29.40;46.70
3298;DHT22;1661;53.572;10.174;2022-07-03T09:26:11;29.40;46.00
3298;DHT22;1661;53.572;10.174;2022-07-03T09:28:43;29.60;45.40
3298;DHT22;1661;53.572;10.174;2022-07-03T09:31:11;29.50;46.10
3298;DHT22;1661;53.572;10.174;2022-07-03T09:33:50;29.60;45.90
3298;DHT22;1661;53.572;10.174;2022-07-03T09:36:18;29.00;45.50
3298;DHT22;1661;53.572;10.174;2022-07-03T09:38:45;28.60;46.90
3298;DHT22;1661;53.572;10.174;2022-07-03T09:41:12;28.70;47.20
3298;DHT22;1661;53.572;10.174;2022-07-03T09:43:42;28.80;47.50
3298;DHT22;1661;53.572;10.174;2022-07-03T09:46:09;28.50;47.00
3298;DHT22;1661;53.572;10.174;2022-07-03T09:48:38;28.60;47.00
3298;DHT22;1661;53.572;10.174;2022-07-03T09:51:26;28.70;46.40
3298;DHT22;1661;53.572;10.174;2022-07-03T09:53:55;28.60;47.30
3298;DHT22;1661;53.572;10.174;2022-07-03T09:56:24;28.80;50.40
3298;DHT22;1661;53.572;10.174;2022-07-03T09:59:02;29.00;47.80
3298;DHT22;1661;53.572;10.174;2022-07-03T10:01:29;29.10;49.90
3298;DHT22;1661;53.572;10.174;2022-07-03T10:04:12;29.10;48.00
3298;DHT22;1661;53.572;10.174;2022-07-03T10:06:51;28.50;47.40
3298;DHT22;1661;53.572;10.174;2022-07-03T10:09:19;28.40;49.20
3298;DHT22;1661;53.572;10.174;2022-07-03T10:11:47;28.40;49.40
3298;DHT22;1661;53.572;10.174;2022-07-03T10:14:15;28.40;51.30
3298;DHT22;1661;53.572;10.174;2022-07-03T10:16:42;28.40;51.70
3298;DHT22;1661;53.572;10.174;2022-07-03T10:19:12;28.50;48.70
3298;DHT22;1661;53.572;10.174;2022-07-03T10:21:41;28.50;49.60
3298;DHT22;1661;53.572;10.174;2022-07-03T10:24:11;28.40;48.80
3298;DHT22;1661;53.572;10.174;2022-07-03T10:26:39;28.30;49.90
3298;DHT22;1661;53.572;10.174;2022-07-03T10:29:09;28.40;50.20
3298;DHT22;1661;53.572;10.174;2022-07-03T10:31:37;28.40;48.30
3298;DHT22;1661;53.572;10.174;2022-07-03T10:34:04;28.50;51.00
3298;DHT22;1661;53.572;10.174;2022-07-03T10:36:32;28.70;48.70
3298;DHT22;1661;53.572;10.174;2022-07-03T10:39:06;28.70;49.60
3298;DHT22;1661;53.572;10.174;2022-07-03T10:41:36;28.80;48.30
3298;DHT22;1661;53.572;10.174;2022-07-03T10:44:23;28.20;48.10
3298;DHT22;1661;53.572;10.174;2022-07-03T10:47:42;28.10;50.90
3298;DHT22;1661;53.572;10.174;2022-07-03T10:50:10;28.10;51.00
3298;DHT22;1661;53.572;10.174;2022-07-03T10:52:38;28.30;50.00
3298;DHT22;1661;53.572;10.174;2022-07-03T10:55:06;28.30;50.60
3298;DHT22;1661;53.572;10.174;2022-07-03T10:57:33;28.50;51.90
3298;DHT22;1661;53.572;10.174;2022-07-03T11:00:16;28.70;50.20
3298;DHT22;1661;53.572;10.174;2022-07-03T11:02:49;29.00;50.10
3298;DHT22;1661;53.572;10.174;2022-07-03T11:05:21;29.40;47.70
3298;DHT22;1661;53.572;10.174;2022-07-03T11:08:05;29.80;48.30
3298;DHT22;1661;53.572;10.174;2022-07-03T11:10:34;30.30;47.60
3298;DHT22;1661;53.572;10.174;2022-07-03T11:13:03;30.60;45.30
3298;DHT22;1661;53.572;10.174;2022-07-03T11:15:31;30.80;45.20
3298;DHT22;1661;53.572;10.174;2022-07-03T11:18:28;30.70;44.80
3298;DHT22;1661;53.572;10.174;2022-07-03T11:21:19;30.50;44.10
3298;DHT22;1661;53.572;10.174;2022-07-03T11:24:24;30.80;42.50
3298;DHT22;1661;53.572;10.174;2022-07-03T11:27:12;31.20;42.10
3298;DHT22;1661;53.572;10.174;2022-07-03T11:29:39;31.60;40.40
3298;DHT22;1661;53.572;10.174;2022-07-03T11:32:42;31.80;42.20
3298;DHT22;1661;53.572;10.174;2022-07-03T11:35:49;32.00;41.70
3298;DHT22;1661;53.572;10.174;2022-07-03T11:38:27;32.00;40.00
3298;DHT22;1661;53.572;10.174;2022-07-03T11:40:56;31.30;39.20
3298;DHT22;1661;53.572;10.174;2022-07-03T11:43:29;30.60;41.10
3298;DHT22;1661;53.572;10.174;2022-07-03T11:45:56;30.30;42.50
3298;DHT22;1661;53.572;10.174;2022-07-03T11:48:24;30.50;49.00
3298;DHT22;1661;53.572;10.174;2022-07-03T11:50:59;30.80;42.20
3298;DHT22;1661;53.572;10.174;2022-07-03T11:53:28;31.10;44.80
3298;DHT22;1661;53.572;10.174;2022-07-03T11:55:57;31.30;42.50
3298;DHT22;1661;53.572;10.174;2022-07-03T11:58:39;31.60;41.70
3298;DHT22;1661;53.572;10.174;2022-07-03T12:01:08;31.90;39.80
3298;DHT22;1661;53.572;10.174;2022-07-03T12:03:34;32.00;40.20
3298;DHT22;1661;53.572;10.174;2022-07-03T12:06:03;32.30;40.20
3298;DHT22;1661;53.572;10.174;2022-07-03T12:08:31;32.60;39.50
3298;DHT22;1661;53.572;10.174;2022-07-03T12:11:03;32.90;41.70
3298;DHT22;1661;53.572;10.174;2022-07-03T12:13:32;32.80;42.20
3298;DHT22;1661;53.572;10.174;2022-07-03T12:16:07;32.50;38.00
3298;DHT22;1661;53.572;10.174;2022-07-03T12:18:47;32.30;44.00
3298;DHT22;1661;53.572;10.174;2022-07-03T12:21:17;31.90;38.20
3298;DHT22;1661;53.572;10.174;2022-07-03T12:23:46;31.90;40.30
3298;DHT22;1661;53.572;10.174;2022-07-03T12:26:14;31.70;41.30
3298;DHT22;1661;53.572;10.174;2022-07-03T12:28:41;31.90;41.50
3298;DHT22;1661;53.572;10.174;2022-07-03T12:31:08;32.10;44.20
3298;DHT22;1661;53.572;10.174;2022-07-03T12:33:35;31.90;39.30
3298;DHT22;1661;53.572;10.174;2022-07-03T12:36:05;31.80;42.80
3298;DHT22;1661;53.572;10.174;2022-07-03T12:38:36;32.10;42.70
3298;DHT22;1661;53.572;10.174;2022-07-03T12:41:04;31.80;38.00
3298;DHT22;1661;53.572;10.174;2022-07-03T12:43:38;31.50;42.40
3298;DHT22;1661;53.572;10.174;2022-07-03T12:46:18;31.50;39.80
3298;DHT22;1661;53.572;10.174;2022-07-03T12:48:47;31.40;41.00
3298;DHT22;1661;53.572;10.174;2022-07-03T12:51:15;31.30;45.20
3298;DHT22;1661;53.572;10.174;2022-07-03T12:53:54;31.10;42.30
3298;DHT22;1661;53.572;10.174;2022-07-03T12:56:21;30.80;46.90
3298;DHT22;1661;53.572;10.174;2022-07-03T12:58:47;31.00;45.10
3298;DHT22;1661;53.572;10.174;2022-07-03T13:01:33;31.00;45.30
3298;DHT22;1661;53.572;10.174;2022-07-03T13:04:02;30.70;42.50
3298;DHT22;1661;53.572;10.174;2022-07-03T13:06:33;30.40;43.70
3298;DHT22;1661;53.572;10.174;2022-07-03T13:09:03;30.60;48.40
3298;DHT22;1661;53.572;10.174;2022-07-03T13:11:31;30.70;45.70
3298;DHT22;1661;53.572;10.174;2022-07-03T13:14:06;30.70;44.90
3298;DHT22;1661;53.572;10.174;2022-07-03T13:16:42;30.80;47.80
3298;DHT22;1661;53.572;10.174;2022-07-03T13:19:10;30.90;49.40
3298;DHT22;1661;53.572;10.174;2022-07-03T13:21:38;30.80;47.40
3298;DHT22;1661;53.572;10.174;2022-07-03T13:24:07;30.80;45.10
3298;DHT22;1661;53.572;10.174;2022-07-03T13:26:34;30.90;43.60
3298;DHT22;1661;53.572;10.174;2022-07-03T13:29:01;31.10;47.70
3298;DHT22;1661;53.572;10.174;2022-07-03T13:31:28;31.30;43.40
3298;DHT22;1661;53.572;10.174;2022-07-03T13:33:58;31.60;45.10
3298;DHT22;1661;53.572;10.174;2022-07-03T13:36:26;31.70;41.00
3298;DHT22;1661;53.572;10.174;2022-07-03T13:38:52;31.90;41.00
3298;DHT22;1661;53.572;10.174;2022-07-03T13:41:21;32.20;43.90
3298;DHT22;1661;53.572;10.174;2022-07-03T13:43:48;31.90;39.60
3298;DHT22;1661;53.572;10.174;2022-07-03T13:46:15;31.70;40.80
3298;DHT22;1661;53.572;10.174;2022-07-03T13:48:42;31.80;39.50
3298;DHT22;1661;53.572;10.174;2022-07-03T13:51:09;31.60;41.30
3298;DHT22;1661;53.572;10.174;2022-07-03T13:53:36;31.60;39.50
3298;DHT22;1661;53.572;10.174;2022-07-03T13:56:04;31.50;41.60
3298;DHT22;1661;53.572;10.174;2022-07-03T13:58:32;31.80;46.70
3298;DHT22;1661;53.572;10.174;2022-07-03T14:00:59;32.10;42.20
3298;DHT22;1661;53.572;10.174;2022-07-03T14:03:27;32.40;39.20
3298;DHT22;1661;53.572;10.174;2022-07-03T14:05:53;32.70;40.40
3298;DHT22;1661;53.572;10.174;2022-07-03T14:08:21;33.00;39.00
3298;DHT22;1661;53.572;10.174;2022-07-03T14:10:48;33.00;39.70
3298;DHT22;1661;53.572;10.174;2022-07-03T14:13:15;33.20;39.70
3298;DHT22;1661;53.572;10.174;2022-07-03T14:15:43;33.40;41.30
3298;DHT22;1661;53.572;10.174;2022-07-03T14:18:10;33.70;42.40
3298;DHT22;1661;53.572;10.174;2022-07-03T14:20:37;33.70;40.20
3298;DHT22;1661;53.572;10.174;2022-07-03T14:23:04;33.70;38.70
3298;DHT22;1661;53.572;10.174;2022-07-03T14:25:30;33.80;38.70
3298;DHT22;1661;53.572;10.174;2022-07-03T14:27:57;33.90;38.10
3298;DHT22;1661;53.572;10.174;2022-07-03T14:30:43;34.20;36.60
3298;DHT22;1661;53.572;10.174;2022-07-03T14:33:27;34.40;39.00
3298;DHT22;1661;53.572;10.174;2022-07-03T14:35:54;34.00;40.30
3298;DHT22;1661;53.572;10.174;2022-07-03T14:38:20;34.20;41.20
3298;DHT22;1661;53.572;10.174;2022-07-03T14:40:47;34.50;38.80
3298;DHT22;1661;53.572;10.174;2022-07-03T14:43:14;34.70;36.30
3298;DHT22;1661;53.572;10.174;2022-07-03T14:45:42;34.70;37.90
3298;DHT22;1661;53.572;10.174;2022-07-03T14:48:09;34.80;39.70
3298;DHT22;1661;53.572;10.174;2022-07-03T14:50:36;35.00;38.60
3298;DHT22;1661;53.572;10.174;2022-07-03T14:53:05;34.60;33.70
3298;DHT22;1661;53.572;10.174;2022-07-03T14:55:36;34.40;36.30
3298;DHT22;1661;53.572;10.174;2022-07-03T14:58:07;34.10;38.80
3298;DHT22;1661;53.572;10.174;2022-07-03T15:00:41;34.00;39.30
3298;DHT22;1661;53.572;10.174;2022-07-03T15:03:29;34.30;40.10
3298;DHT22;1661;53.572;10.174;2022-07-03T15:05:57;34.50;34.50
3298;DHT22;1661;53.572;10.174;2022-07-03T15:08:42;34.50;34.20
3298;DHT22;1661;53.572;10.174;2022-07-03T15:11:14;34.60;33.70
3298;DHT22;1661;53.572;10.174;2022-07-03T15:14:03;34.60;32.90
3298;DHT22;1661;53.572;10.174;2022-07-03T15:16:31;34.50;34.40
3298;DHT22;1661;53.572;10.174;2022-07-03T15:19:00;34.60;33.50
3298;DHT22;1661;53.572;10.174;2022-07-03T15:21:30;34.60;32.70
3298;DHT22;1661;53.572;10.174;2022-07-03T15:24:00;34.50;31.40
3298;DHT22;1661;53.572;10.174;2022-07-03T15:26:29;34.20;32.40
3298;DHT22;1661;53.572;10.174;2022-07-03T15:29:01;34.20;33.40
3298;DHT22;1661;53.572;10.174;2022-07-03T15:31:29;34.00;33.00
3298;DHT22;1661;53.572;10.174;2022-07-03T15:34:02;33.90;32.70
3298;DHT22;1661;53.572;10.174;2022-07-03T15:36:35;33.90;33.50
3298;DHT22;1661;53.572;10.174;2022-07-03T15:39:07;33.80;34.20
3298;DHT22;1661;53.572;10.174;2022-07-03T15:41:44;33.90;33.90
3298;DHT22;1661;53.572;10.174;2022-07-03T15:44:22;33.70;34.50
3298;DHT22;1661;53.572;10.174;2022-07-03T15:46:58;33.70;33.80
3298;DHT22;1661;53.572;10.174;2022-07-03T15:49:32;33.70;34.60
3298;DHT22;1661;53.572;10.174;2022-07-03T15:52:10;33.60;35.70
3298;DHT22;1661;53.572;10.174;2022-07-03T15:54:44;33.50;34.10
3298;DHT22;1661;53.572;10.174;2022-07-03T15:57:19;33.40;35.70
3298;DHT22;1661;53.572;10.174;2022-07-03T15:59:52;33.20;35.70
3298;DHT22;1661;53.572;10.174;2022-07-03T16:02:32;33.10;34.80
3298;DHT22;1661;53.572;10.174;2022-07-03T16:05:05;32.90;35.30